Terminal Aerodrome Forecast
Issued by NWS Charleston, WV

Current Version | Previous Version | Graphics & Text | Print | Product List | Glossary On
Versions: 1 2 3 4 5 6 7 8 9 10 11 12 13 14 15 16 17 18 19 20 21 22 23 24 25 26
000
FTUS41 KRLX 261400 AAA
TAFCRW
TAF AMD
KCRW 261434Z 2615/2712 21012G20KT P6SM BKN060
     FM261700 24013G23KT P6SM VCTS BKN050CB
     FM262000 30012G22KT 6SM -SHRA BKN030
     FM262200 32011G19KT 3SM -SHRA BKN020
     FM270100 33008KT 4SM -SHRA BR OVC015
     FM270500 31006KT P6SM OVC015=

USA.gov is the U.S. government's official web portal to all federal, state and local government web resources and services.